sensor_id;sensor_type;location;lat;lon;timestamp;temperature;humidity
26336;DHT22;14047;50.936;4.654;2022-09-06T00:01:16;18.90;99.90
26336;DHT22;14047;50.936;4.654;2022-09-06T00:03:42;19.00;99.90
26336;DHT22;14047;50.936;4.654;2022-09-06T00:06:10;19.00;99.90
26336;DHT22;14047;50.936;4.654;2022-09-06T00:08:37;19.00;99.90
26336;DHT22;14047;50.936;4.654;2022-09-06T00:11:03;19.00;99.90
26336;DHT22;14047;50.936;4.654;2022-09-06T00:13:29;19.00;99.90
26336;DHT22;14047;50.936;4.654;2022-09-06T00:15:54;19.00;99.90
26336;DHT22;14047;50.936;4.654;2022-09-06T00:18:21;19.10;99.90
26336;DHT22;14047;50.936;4.654;2022-09-06T00:20:47;19.10;99.90
26336;DHT22;14047;50.936;4.654;2022-09-06T00:23:12;19.10;99.90
26336;DHT22;14047;50.936;4.654;2022-09-06T00:25:39;19.10;99.90
26336;DHT22;14047;50.936;4.654;2022-09-06T00:28:06;19.10;99.90
26336;DHT22;14047;50.936;4.654;2022-09-06T00:30:32;19.10;99.90
26336;DHT22;14047;50.936;4.654;2022-09-06T00:32:58;19.10;99.90
26336;DHT22;14047;50.936;4.654;2022-09-06T00:35:24;19.10;99.90
26336;DHT22;14047;50.936;4.654;2022-09-06T00:37:55;19.10;99.90
26336;DHT22;14047;50.936;4.654;2022-09-06T00:40:21;19.00;99.90
26336;DHT22;14047;50.936;4.654;2022-09-06T00:42:46;19.00;99.90
26336;DHT22;14047;50.936;4.654;2022-09-06T00:45:13;19.00;99.90
26336;DHT22;14047;50.936;4.654;2022-09-06T00:47:40;19.00;99.90
26336;DHT22;14047;50.936;4.654;2022-09-06T00:50:09;19.10;99.90
26336;DHT22;14047;50.936;4.654;2022-09-06T00:52:37;19.10;99.90
26336;DHT22;14047;50.936;4.654;2022-09-06T00:55:04;19.10;99.90
26336;DHT22;14047;50.936;4.654;2022-09-06T00:57:30;19.10;99.90
26336;DHT22;14047;50.936;4.654;2022-09-06T00:59:57;19.10;99.90
26336;DHT22;14047;50.936;4.654;2022-09-06T01:02:24;19.20;99.90
26336;DHT22;14047;50.936;4.654;2022-09-06T01:04:50;19.10;99.90
26336;DHT22;14047;50.936;4.654;2022-09-06T01:13:31;18.80;99.90
26336;DHT22;14047;50.936;4.654;2022-09-06T01:16:10;18.90;99.90
26336;DHT22;14047;50.936;4.654;2022-09-06T01:21:53;18.80;99.90
26336;DHT22;14047;50.936;4.654;2022-09-06T01:29:49;18.80;99.90
26336;DHT22;14047;50.936;4.654;2022-09-06T01:35:43;18.80;99.90
26336;DHT22;14047;50.936;4.654;2022-09-06T01:38:01;18.70;99.90
26336;DHT22;14047;50.936;4.654;2022-09-06T01:40:27;18.70;99.90
26336;DHT22;14047;50.936;4.654;2022-09-06T01:42:53;18.60;99.90
26336;DHT22;14047;50.936;4.654;2022-09-06T01:45:24;18.60;99.90
26336;DHT22;14047;50.936;4.654;2022-09-06T01:48:18;18.50;99.90
26336;DHT22;14047;50.936;4.654;2022-09-06T01:53:35;18.20;99.90
26336;DHT22;14047;50.936;4.654;2022-09-06T02:01:56;18.30;99.90
26336;DHT22;14047;50.936;4.654;2022-09-06T02:04:49;18.30;99.90
26336;DHT22;14047;50.936;4.654;2022-09-06T02:07:21;18.40;99.90
26336;DHT22;14047;50.936;4.654;2022-09-06T02:12:48;18.40;99.90
26336;DHT22;14047;50.936;4.654;2022-09-06T02:15:19;18.20;99.90
26336;DHT22;14047;50.936;4.654;2022-09-06T02:17:57;18.20;99.90
26336;DHT22;14047;50.936;4.654;2022-09-06T02:20:30;18.30;99.90
26336;DHT22;14047;50.936;4.654;2022-09-06T02:23:01;18.30;99.90
26336;DHT22;14047;50.936;4.654;2022-09-06T02:25:36;18.30;99.90
26336;DHT22;14047;50.936;4.654;2022-09-06T02:28:04;18.40;99.90
26336;DHT22;14047;50.936;4.654;2022-09-06T02:30:33;18.40;99.90
26336;DHT22;14047;50.936;4.654;2022-09-06T02:33:07;18.30;99.90
26336;DHT22;14047;50.936;4.654;2022-09-06T02:35:42;18.30;99.90
26336;DHT22;14047;50.936;4.654;2022-09-06T02:38:08;18.20;99.90
26336;DHT22;14047;50.936;4.654;2022-09-06T02:40:34;18.30;99.90
26336;DHT22;14047;50.936;4.654;2022-09-06T02:43:00;18.20;99.90
26336;DHT22;14047;50.936;4.654;2022-09-06T02:45:25;18.30;99.90
26336;DHT22;14047;50.936;4.654;2022-09-06T02:47:51;18.20;99.90
26336;DHT22;14047;50.936;4.654;2022-09-06T02:50:17;18.20;99.90
26336;DHT22;14047;50.936;4.654;2022-09-06T02:52:42;18.20;99.90
26336;DHT22;14047;50.936;4.654;2022-09-06T02:55:08;18.10;99.90
26336;DHT22;14047;50.936;4.654;2022-09-06T02:57:34;18.10;99.90
26336;DHT22;14047;50.936;4.654;2022-09-06T03:00:00;18.10;99.90
26336;DHT22;14047;50.936;4.654;2022-09-06T03:02:25;18.20;99.90
26336;DHT22;14047;50.936;4.654;2022-09-06T03:04:51;18.20;99.90
26336;DHT22;14047;50.936;4.654;2022-09-06T03:07:17;18.10;99.90
26336;DHT22;14047;50.936;4.654;2022-09-06T03:09:43;18.20;99.90
26336;DHT22;14047;50.936;4.654;2022-09-06T03:12:08;18.20;99.90
26336;DHT22;14047;50.936;4.654;2022-09-06T03:14:34;18.20;99.90
26336;DHT22;14047;50.936;4.654;2022-09-06T03:17:01;18.10;99.90
26336;DHT22;14047;50.936;4.654;2022-09-06T03:19:27;18.20;99.90
26336;DHT22;14047;50.936;4.654;2022-09-06T03:21:52;18.30;99.90
26336;DHT22;14047;50.936;4.654;2022-09-06T03:24:18;18.30;99.90
26336;DHT22;14047;50.936;4.654;2022-09-06T03:26:44;18.30;99.90
26336;DHT22;14047;50.936;4.654;2022-09-06T03:29:09;18.20;99.90
26336;DHT22;14047;50.936;4.654;2022-09-06T03:31:35;18.10;99.90
26336;DHT22;14047;50.936;4.654;2022-09-06T03:34:01;18.20;99.90
26336;DHT22;14047;50.936;4.654;2022-09-06T03:36:26;18.30;99.90
26336;DHT22;14047;50.936;4.654;2022-09-06T03:38:52;18.30;99.90
26336;DHT22;14047;50.936;4.654;2022-09-06T03:41:18;18.30;99.90
26336;DHT22;14047;50.936;4.654;2022-09-06T03:43:44;18.20;99.90
26336;DHT22;14047;50.936;4.654;2022-09-06T03:46:10;18.20;99.90
26336;DHT22;14047;50.936;4.654;2022-09-06T03:48:36;18.30;99.90
26336;DHT22;14047;50.936;4.654;2022-09-06T03:51:01;18.30;99.90
26336;DHT22;14047;50.936;4.654;2022-09-06T03:53:28;18.30;99.90
26336;DHT22;14047;50.936;4.654;2022-09-06T03:55:56;18.20;99.90
26336;DHT22;14047;50.936;4.654;2022-09-06T03:58:23;18.20;99.90
26336;DHT22;14047;50.936;4.654;2022-09-06T04:00:57;18.20;99.90
26336;DHT22;14047;50.936;4.654;2022-09-06T04:03:23;18.30;99.90
26336;DHT22;14047;50.936;4.654;2022-09-06T04:05:49;18.30;99.90
26336;DHT22;14047;50.936;4.654;2022-09-06T04:08:14;18.30;99.90
26336;DHT22;14047;50.936;4.654;2022-09-06T04:10:40;18.30;99.90
26336;DHT22;14047;50.936;4.654;2022-09-06T04:13:06;18.40;99.90
26336;DHT22;14047;50.936;4.654;2022-09-06T04:15:31;18.30;99.90
26336;DHT22;14047;50.936;4.654;2022-09-06T04:17:57;18.30;99.90
26336;DHT22;14047;50.936;4.654;2022-09-06T04:20:23;18.30;99.90
26336;DHT22;14047;50.936;4.654;2022-09-06T04:22:48;18.30;99.90
26336;DHT22;14047;50.936;4.654;2022-09-06T04:25:14;18.30;99.90
26336;DHT22;14047;50.936;4.654;2022-09-06T04:27:39;18.20;99.90
26336;DHT22;14047;50.936;4.654;2022-09-06T04:30:06;18.20;99.90
26336;DHT22;14047;50.936;4.654;2022-09-06T04:32:32;18.20;99.90
26336;DHT22;14047;50.936;4.654;2022-09-06T04:34:57;18.20;99.90
26336;DHT22;14047;50.936;4.654;2022-09-06T04:37:23;18.20;99.90
26336;DHT22;14047;50.936;4.654;2022-09-06T04:39:48;18.20;99.90
26336;DHT22;14047;50.936;4.654;2022-09-06T04:42:14;18.10;99.90
26336;DHT22;14047;50.936;4.654;2022-09-06T04:44:40;18.10;99.90
26336;DHT22;14047;50.936;4.654;2022-09-06T04:47:12;18.10;99.90
26336;DHT22;14047;50.936;4.654;2022-09-06T04:49:39;18.10;99.90
26336;DHT22;14047;50.936;4.654;2022-09-06T04:52:05;18.10;99.90
26336;DHT22;14047;50.936;4.654;2022-09-06T04:54:31;18.10;99.90
26336;DHT22;14047;50.936;4.654;2022-09-06T04:56:57;18.10;99.90
26336;DHT22;14047;50.936;4.654;2022-09-06T04:59:23;18.10;99.90
26336;DHT22;14047;50.936;4.654;2022-09-06T05:01:48;18.10;99.90
26336;DHT22;14047;50.936;4.654;2022-09-06T05:04:14;18.00;99.90
26336;DHT22;14047;50.936;4.654;2022-09-06T05:06:39;18.10;99.90
26336;DHT22;14047;50.936;4.654;2022-09-06T05:09:06;18.10;99.90
26336;DHT22;14047;50.936;4.654;2022-09-06T05:11:32;18.10;99.90
26336;DHT22;14047;50.936;4.654;2022-09-06T05:13:57;18.10;99.90
26336;DHT22;14047;50.936;4.654;2022-09-06T05:16:23;18.10;99.90
26336;DHT22;14047;50.936;4.654;2022-09-06T05:18:48;18.10;99.90
26336;DHT22;14047;50.936;4.654;2022-09-06T05:21:14;18.10;99.90
26336;DHT22;14047;50.936;4.654;2022-09-06T05:23:40;18.10;99.90
26336;DHT22;14047;50.936;4.654;2022-09-06T05:26:06;18.20;99.90
26336;DHT22;14047;50.936;4.654;2022-09-06T05:28:31;18.10;99.90
26336;DHT22;14047;50.936;4.654;2022-09-06T05:31:26;18.10;99.90
26336;DHT22;14047;50.936;4.654;2022-09-06T05:33:53;18.10;99.90
26336;DHT22;14047;50.936;4.654;2022-09-06T05:36:19;18.20;99.90
26336;DHT22;14047;50.936;4.654;2022-09-06T05:38:45;18.20;99.90
26336;DHT22;14047;50.936;4.654;2022-09-06T05:41:10;18.20;99.90
26336;DHT22;14047;50.936;4.654;2022-09-06T05:43:36;18.20;99.90
26336;DHT22;14047;50.936;4.654;2022-09-06T05:46:02;18.20;99.90
26336;DHT22;14047;50.936;4.654;2022-09-06T05:48:28;18.20;99.90
26336;DHT22;14047;50.936;4.654;2022-09-06T05:51:19;18.20;99.90
26336;DHT22;14047;50.936;4.654;2022-09-06T05:53:46;18.30;99.90
26336;DHT22;14047;50.936;4.654;2022-09-06T05:56:12;18.40;99.90
26336;DHT22;14047;50.936;4.654;2022-09-06T05:58:38;18.50;99.90
26336;DHT22;14047;50.936;4.654;2022-09-06T06:03:29;18.50;99.90
26336;DHT22;14047;50.936;4.654;2022-09-06T06:05:55;18.60;99.90
26336;DHT22;14047;50.936;4.654;2022-09-06T06:08:21;18.60;99.90
26336;DHT22;14047;50.936;4.654;2022-09-06T06:10:46;18.70;99.90
26336;DHT22;14047;50.936;4.654;2022-09-06T06:13:12;18.70;99.90
26336;DHT22;14047;50.936;4.654;2022-09-06T06:15:38;18.80;99.90
26336;DHT22;14047;50.936;4.654;2022-09-06T06:18:03;18.80;99.90
26336;DHT22;14047;50.936;4.654;2022-09-06T06:20:29;18.90;99.90
26336;DHT22;14047;50.936;4.654;2022-09-06T06:22:55;19.00;99.90
26336;DHT22;14047;50.936;4.654;2022-09-06T06:25:20;18.90;99.90
26336;DHT22;14047;50.936;4.654;2022-09-06T06:27:51;19.00;99.90
26336;DHT22;14047;50.936;4.654;2022-09-06T06:30:16;19.20;99.90
26336;DHT22;14047;50.936;4.654;2022-09-06T06:32:42;19.20;99.90
26336;DHT22;14047;50.936;4.654;2022-09-06T06:35:08;19.40;99.90
26336;DHT22;14047;50.936;4.654;2022-09-06T06:37:34;19.40;99.90
26336;DHT22;14047;50.936;4.654;2022-09-06T06:40:00;19.40;99.90
26336;DHT22;14047;50.936;4.654;2022-09-06T06:42:25;19.50;99.90
26336;DHT22;14047;50.936;4.654;2022-09-06T06:44:51;19.70;99.90
26336;DHT22;14047;50.936;4.654;2022-09-06T06:47:20;19.80;99.90
26336;DHT22;14047;50.936;4.654;2022-09-06T06:49:45;20.00;99.90
26336;DHT22;14047;50.936;4.654;2022-09-06T06:52:12;20.00;99.90
26336;DHT22;14047;50.936;4.654;2022-09-06T06:54:38;20.10;99.90
26336;DHT22;14047;50.936;4.654;2022-09-06T06:57:04;20.30;99.90
26336;DHT22;14047;50.936;4.654;2022-09-06T06:59:30;20.40;99.90
26336;DHT22;14047;50.936;4.654;2022-09-06T07:01:56;20.40;99.90
26336;DHT22;14047;50.936;4.654;2022-09-06T07:04:21;20.50;99.90
26336;DHT22;14047;50.936;4.654;2022-09-06T07:06:55;20.60;99.90
26336;DHT22;14047;50.936;4.654;2022-09-06T07:09:21;20.50;99.90
26336;DHT22;14047;50.936;4.654;2022-09-06T07:11:47;20.70;99.90
26336;DHT22;14047;50.936;4.654;2022-09-06T07:14:14;20.60;99.90
26336;DHT22;14047;50.936;4.654;2022-09-06T07:16:41;20.40;99.90
26336;DHT22;14047;50.936;4.654;2022-09-06T07:19:07;20.30;99.90
26336;DHT22;14047;50.936;4.654;2022-09-06T07:21:32;20.20;99.90
26336;DHT22;14047;50.936;4.654;2022-09-06T07:23:58;20.40;99.90
26336;DHT22;14047;50.936;4.654;2022-09-06T07:26:28;20.60;99.90
26336;DHT22;14047;50.936;4.654;2022-09-06T07:28:55;20.80;99.90
26336;DHT22;14047;50.936;4.654;2022-09-06T07:31:21;21.00;99.90
26336;DHT22;14047;50.936;4.654;2022-09-06T07:33:47;21.10;99.90
26336;DHT22;14047;50.936;4.654;2022-09-06T07:36:13;21.30;99.90
26336;DHT22;14047;50.936;4.654;2022-09-06T07:38:39;21.30;99.90
26336;DHT22;14047;50.936;4.654;2022-09-06T07:41:07;20.90;99.90
26336;DHT22;14047;50.936;4.654;2022-09-06T07:43:33;21.00;99.90
26336;DHT22;14047;50.936;4.654;2022-09-06T07:46:15;21.00;99.90
26336;DHT22;14047;50.936;4.654;2022-09-06T07:48:43;21.00;99.90
26336;DHT22;14047;50.936;4.654;2022-09-06T07:51:11;20.80;99.90
26336;DHT22;14047;50.936;4.654;2022-09-06T07:53:39;20.80;99.90
26336;DHT22;14047;50.936;4.654;2022-09-06T07:56:07;21.00;99.90
26336;DHT22;14047;50.936;4.654;2022-09-06T07:58:34;21.20;99.90
26336;DHT22;14047;50.936;4.654;2022-09-06T08:01:26;21.40;99.90
26336;DHT22;14047;50.936;4.654;2022-09-06T08:03:53;21.60;99.90
26336;DHT22;14047;50.936;4.654;2022-09-06T08:06:20;21.50;99.90
26336;DHT22;14047;50.936;4.654;2022-09-06T08:08:47;21.60;99.90
26336;DHT22;14047;50.936;4.654;2022-09-06T08:11:13;21.80;99.90
26336;DHT22;14047;50.936;4.654;2022-09-06T08:13:38;22.00;99.90
26336;DHT22;14047;50.936;4.654;2022-09-06T08:16:07;22.20;99.90
26336;DHT22;14047;50.936;4.654;2022-09-06T08:18:34;22.30;99.90
26336;DHT22;14047;50.936;4.654;2022-09-06T08:21:14;22.20;99.90
26336;DHT22;14047;50.936;4.654;2022-09-06T08:23:47;22.10;99.90
26336;DHT22;14047;50.936;4.654;2022-09-06T08:26:14;22.30;99.90
26336;DHT22;14047;50.936;4.654;2022-09-06T08:28:40;22.30;99.90
26336;DHT22;14047;50.936;4.654;2022-09-06T08:31:07;22.50;99.90
26336;DHT22;14047;50.936;4.654;2022-09-06T08:33:33;22.60;99.90
26336;DHT22;14047;50.936;4.654;2022-09-06T08:35:59;22.50;99.90
26336;DHT22;14047;50.936;4.654;2022-09-06T08:38:25;22.50;99.90
26336;DHT22;14047;50.936;4.654;2022-09-06T08:41:05;22.50;99.90
26336;DHT22;14047;50.936;4.654;2022-09-06T08:43:36;22.40;99.90
26336;DHT22;14047;50.936;4.654;2022-09-06T08:46:02;22.40;99.90
26336;DHT22;14047;50.936;4.654;2022-09-06T08:48:32;22.50;99.90
26336;DHT22;14047;50.936;4.654;2022-09-06T08:53:38;22.40;99.90
26336;DHT22;14047;50.936;4.654;2022-09-06T08:56:22;22.60;99.90
26336;DHT22;14047;50.936;4.654;2022-09-06T08:59:04;22.70;99.90
26336;DHT22;14047;50.936;4.654;2022-09-06T09:04:23;23.10;99.90
26336;DHT22;14047;50.936;4.654;2022-09-06T09:06:52;23.20;99.90
26336;DHT22;14047;50.936;4.654;2022-09-06T09:09:20;23.30;99.90
26336;DHT22;14047;50.936;4.654;2022-09-06T09:11:49;23.10;99.90
26336;DHT22;14047;50.936;4.654;2022-09-06T09:14:28;23.10;99.90
26336;DHT22;14047;50.936;4.654;2022-09-06T09:16:56;23.20;99.90
26336;DHT22;14047;50.936;4.654;2022-09-06T09:19:28;23.20;99.90
26336;DHT22;14047;50.936;4.654;2022-09-06T09:21:58;23.50;99.90
26336;DHT22;14047;50.936;4.654;2022-09-06T09:24:23;23.70;99.90
26336;DHT22;14047;50.936;4.654;2022-09-06T09:27:09;23.60;99.90
26336;DHT22;14047;50.936;4.654;2022-09-06T09:32:37;23.50;99.90
26336;DHT22;14047;50.936;4.654;2022-09-06T09:35:24;23.50;99.90
26336;DHT22;14047;50.936;4.654;2022-09-06T09:38:07;23.80;99.90
26336;DHT22;14047;50.936;4.654;2022-09-06T09:40:48;24.00;99.90
26336;DHT22;14047;50.936;4.654;2022-09-06T09:43:25;24.10;99.90
26336;DHT22;14047;50.936;4.654;2022-09-06T09:48:36;24.40;99.90
26336;DHT22;14047;50.936;4.654;2022-09-06T09:51:21;24.60;99.90
26336;DHT22;14047;50.936;4.654;2022-09-06T09:53:51;24.60;99.90
26336;DHT22;14047;50.936;4.654;2022-09-06T09:56:33;24.70;99.90
26336;DHT22;14047;50.936;4.654;2022-09-06T09:59:00;24.80;99.90
26336;DHT22;14047;50.936;4.654;2022-09-06T10:01:29;24.70;99.90
26336;DHT22;14047;50.936;4.654;2022-09-06T10:04:07;24.70;99.90
26336;DHT22;14047;50.936;4.654;2022-09-06T10:06:34;24.70;99.90
26336;DHT22;14047;50.936;4.654;2022-09-06T10:09:17;24.90;99.90
26336;DHT22;14047;50.936;4.654;2022-09-06T10:11:57;25.00;99.90
26336;DHT22;14047;50.936;4.654;2022-09-06T10:16:49;24.90;99.90
26336;DHT22;14047;50.936;4.654;2022-09-06T10:22:07;25.10;99.90
26336;DHT22;14047;50.936;4.654;2022-09-06T10:27:26;25.10;99.90
26336;DHT22;14047;50.936;4.654;2022-09-06T10:30:05;25.10;99.90
26336;DHT22;14047;50.936;4.654;2022-09-06T10:32:44;25.20;99.90
26336;DHT22;14047;50.936;4.654;2022-09-06T10:35:44;25.20;99.90
26336;DHT22;14047;50.936;4.654;2022-09-06T10:43:51;25.30;99.90
26336;DHT22;14047;50.936;4.654;2022-09-06T10:46:25;25.40;99.90
26336;DHT22;14047;50.936;4.654;2022-09-06T10:48:51;25.50;99.90
26336;DHT22;14047;50.936;4.654;2022-09-06T10:57:07;25.80;99.90
26336;DHT22;14047;50.936;4.654;2022-09-06T11:03:28;26.00;99.90
26336;DHT22;14047;50.936;4.654;2022-09-06T11:05:25;26.10;99.90
26336;DHT22;14047;50.936;4.654;2022-09-06T11:07:58;26.20;99.90
26336;DHT22;14047;50.936;4.654;2022-09-06T11:10:32;26.40;99.90
26336;DHT22;14047;50.936;4.654;2022-09-06T11:24:32;26.70;99.90
26336;DHT22;14047;50.936;4.654;2022-09-06T11:30:04;26.70;99.90
26336;DHT22;14047;50.936;4.654;2022-09-06T11:32:37;26.80;99.90
26336;DHT22;14047;50.936;4.654;2022-09-06T11:35:07;26.90;99.90
26336;DHT22;14047;50.936;4.654;2022-09-06T11:37:40;27.10;99.90
26336;DHT22;14047;50.936;4.654;2022-09-06T11:47:44;27.30;99.90
26336;DHT22;14047;50.936;4.654;2022-09-06T11:53:00;27.40;99.90
26336;DHT22;14047;50.936;4.654;2022-09-06T11:55:47;27.40;99.90
26336;DHT22;14047;50.936;4.654;2022-09-06T12:00:45;28.00;99.90
26336;DHT22;14047;50.936;4.654;2022-09-06T12:06:37;28.10;99.90
26336;DHT22;14047;50.936;4.654;2022-09-06T12:09:31;28.30;99.90
26336;DHT22;14047;50.936;4.654;2022-09-06T12:11:58;28.30;99.90
26336;DHT22;14047;50.936;4.654;2022-09-06T12:14:28;28.40;99.90
26336;DHT22;14047;50.936;4.654;2022-09-06T12:24:56;28.20;99.90
26336;DHT22;14047;50.936;4.654;2022-09-06T12:27:53;28.30;99.90
26336;DHT22;14047;50.936;4.654;2022-09-06T12:30:38;28.40;99.90
26336;DHT22;14047;50.936;4.654;2022-09-06T12:33:29;28.40;99.90
26336;DHT22;14047;50.936;4.654;2022-09-06T12:36:12;28.50;99.90
26336;DHT22;14047;50.936;4.654;2022-09-06T12:38:38;28.50;99.90
26336;DHT22;14047;50.936;4.654;2022-09-06T12:41:04;28.50;99.90
26336;DHT22;14047;50.936;4.654;2022-09-06T12:43:32;28.70;99.90
26336;DHT22;14047;50.936;4.654;2022-09-06T12:46:02;28.80;99.90
26336;DHT22;14047;50.936;4.654;2022-09-06T12:48:34;29.00;99.90
26336;DHT22;14047;50.936;4.654;2022-09-06T12:51:09;28.80;99.90
26336;DHT22;14047;50.936;4.654;2022-09-06T12:53:52;28.70;99.90
26336;DHT22;14047;50.936;4.654;2022-09-06T12:56:20;28.90;99.90
26336;DHT22;14047;50.936;4.654;2022-09-06T12:58:46;29.10;99.90
26336;DHT22;14047;50.936;4.654;2022-09-06T13:01:31;29.30;99.90
26336;DHT22;14047;50.936;4.654;2022-09-06T13:06:29;29.40;99.90
26336;DHT22;14047;50.936;4.654;2022-09-06T13:08:58;29.30;99.90
26336;DHT22;14047;50.936;4.654;2022-09-06T13:11:33;29.40;99.90
26336;DHT22;14047;50.936;4.654;2022-09-06T13:14:01;29.00;99.90
26336;DHT22;14047;50.936;4.654;2022-09-06T13:16:37;28.90;99.90
26336;DHT22;14047;50.936;4.654;2022-09-06T13:19:14;29.40;99.90
26336;DHT22;14047;50.936;4.654;2022-09-06T13:21:42;29.70;99.90
26336;DHT22;14047;50.936;4.654;2022-09-06T13:24:24;30.00;99.90
26336;DHT22;14047;50.936;4.654;2022-09-06T13:26:51;30.30;99.90
26336;DHT22;14047;50.936;4.654;2022-09-06T13:31:46;30.70;99.90
26336;DHT22;14047;50.936;4.654;2022-09-06T13:34:25;30.90;99.90
26336;DHT22;14047;50.936;4.654;2022-09-06T13:36:53;30.80;99.90
26336;DHT22;14047;50.936;4.654;2022-09-06T13:39:40;31.00;99.90
26336;DHT22;14047;50.936;4.654;2022-09-06T13:42:34;31.40;99.90
26336;DHT22;14047;50.936;4.654;2022-09-06T13:45:26;31.70;99.90
26336;DHT22;14047;50.936;4.654;2022-09-06T13:47:54;31.80;99.90
26336;DHT22;14047;50.936;4.654;2022-09-06T13:50:21;31.90;99.90
26336;DHT22;14047;50.936;4.654;2022-09-06T13:52:47;31.50;99.90
26336;DHT22;14047;50.936;4.654;2022-09-06T13:55:15;31.20;99.90
26336;DHT22;14047;50.936;4.654;2022-09-06T13:57:42;31.50;99.90
26336;DHT22;14047;50.936;4.654;2022-09-06T14:00:09;31.80;99.90
26336;DHT22;14047;50.936;4.654;2022-09-06T14:02:36;31.80;99.90
26336;DHT22;14047;50.936;4.654;2022-09-06T14:05:02;31.90;99.90
26336;DHT22;14047;50.936;4.654;2022-09-06T14:07:28;31.90;99.90
26336;DHT22;14047;50.936;4.654;2022-09-06T14:09:53;32.00;99.90
26336;DHT22;14047;50.936;4.654;2022-09-06T14:12:19;31.80;99.90
26336;DHT22;14047;50.936;4.654;2022-09-06T14:14:45;31.80;99.90
26336;DHT22;14047;50.936;4.654;2022-09-06T14:17:10;31.80;99.90
26336;DHT22;14047;50.936;4.654;2022-09-06T14:19:36;32.00;99.90
26336;DHT22;14047;50.936;4.654;2022-09-06T14:22:01;32.20;99.90
26336;DHT22;14047;50.936;4.654;2022-09-06T14:24:29;32.10;99.90
26336;DHT22;14047;50.936;4.654;2022-09-06T14:26:54;32.20;99.90
26336;DHT22;14047;50.936;4.654;2022-09-06T14:29:20;32.30;99.90
26336;DHT22;14047;50.936;4.654;2022-09-06T14:31:46;32.60;99.90
26336;DHT22;14047;50.936;4.654;2022-09-06T14:34:13;32.80;99.90
26336;DHT22;14047;50.936;4.654;2022-09-06T14:36:38;32.90;99.30
26336;DHT22;14047;50.936;4.654;2022-09-06T14:39:04;32.90;99.00
26336;DHT22;14047;50.936;4.654;2022-09-06T14:41:30;32.70;98.30
26336;DHT22;14047;50.936;4.654;2022-09-06T14:43:57;32.50;98.80
26336;DHT22;14047;50.936;4.654;2022-09-06T14:46:25;32.50;98.10
26336;DHT22;14047;50.936;4.654;2022-09-06T14:49:02;32.50;99.20
26336;DHT22;14047;50.936;4.654;2022-09-06T14:51:29;32.40;98.80
26336;DHT22;14047;50.936;4.654;2022-09-06T14:53:58;32.50;98.70
26336;DHT22;14047;50.936;4.654;2022-09-06T14:56:25;32.40;97.50
26336;DHT22;14047;50.936;4.654;2022-09-06T14:58:51;32.60;97.60
26336;DHT22;14047;50.936;4.654;2022-09-06T15:01:24;32.50;97.40
26336;DHT22;14047;50.936;4.654;2022-09-06T15:03:55;32.60;97.00
26336;DHT22;14047;50.936;4.654;2022-09-06T15:06:23;32.60;98.00
26336;DHT22;14047;50.936;4.654;2022-09-06T15:08:49;32.40;99.60
26336;DHT22;14047;50.936;4.654;2022-09-06T15:11:32;31.80;98.10
26336;DHT22;14047;50.936;4.654;2022-09-06T15:14:02;31.80;98.30
26336;DHT22;14047;50.936;4.654;2022-09-06T15:16:28;31.70;99.40
26336;DHT22;14047;50.936;4.654;2022-09-06T15:18:54;31.50;98.70
26336;DHT22;14047;50.936;4.654;2022-09-06T15:21:20;31.20;99.50
26336;DHT22;14047;50.936;4.654;2022-09-06T15:23:45;31.00;99.90
26336;DHT22;14047;50.936;4.654;2022-09-06T15:26:13;30.70;99.90
26336;DHT22;14047;50.936;4.654;2022-09-06T15:28:41;30.60;99.90
26336;DHT22;14047;50.936;4.654;2022-09-06T15:31:08;30.60;99.90
26336;DHT22;14047;50.936;4.654;2022-09-06T15:33:35;30.60;99.90
26336;DHT22;14047;50.936;4.654;2022-09-06T15:36:02;30.60;99.90
26336;DHT22;14047;50.936;4.654;2022-09-06T15:38:35;30.70;99.90
26336;DHT22;14047;50.936;4.654;2022-09-06T15:41:20;30.70;99.90
26336;DHT22;14047;50.936;4.654;2022-09-06T15:43:49;30.70;99.90
26336;DHT22;14047;50.936;4.654;2022-09-06T15:46:18;30.70;99.90
26336;DHT22;14047;50.936;4.654;2022-09-06T15:48:49;30.80;99.90
26336;DHT22;14047;50.936;4.654;2022-09-06T15:51:17;30.80;99.90
26336;DHT22;14047;50.936;4.654;2022-09-06T15:53:44;30.30;99.90
26336;DHT22;14047;50.936;4.654;2022-09-06T15:56:13;29.90;99.90
26336;DHT22;14047;50.936;4.654;2022-09-06T15:58:39;29.90;99.90
26336;DHT22;14047;50.936;4.654;2022-09-06T16:01:16;29.90;99.90
26336;DHT22;14047;50.936;4.654;2022-09-06T16:03:48;29.70;99.90
26336;DHT22;14047;50.936;4.654;2022-09-06T16:06:22;29.70;99.90
26336;DHT22;14047;50.936;4.654;2022-09-06T16:08:51;29.50;99.90
26336;DHT22;14047;50.936;4.654;2022-09-06T16:11:17;29.40;99.90
26336;DHT22;14047;50.936;4.654;2022-09-06T16:13:44;29.60;99.90
26336;DHT22;14047;50.936;4.654;2022-09-06T16:16:14;29.60;99.90
26336;DHT22;14047;50.936;4.654;2022-09-06T16:18:42;29.50;99.90
26336;DHT22;14047;50.936;4.654;2022-09-06T16:21:16;29.40;99.90
26336;DHT22;14047;50.936;4.654;2022-09-06T16:23:47;29.40;99.90
26336;DHT22;14047;50.936;4.654;2022-09-06T16:26:13;29.40;99.90
26336;DHT22;14047;50.936;4.654;2022-09-06T16:28:38;29.10;99.90
26336;DHT22;14047;50.936;4.654;2022-09-06T16:31:06;28.90;99.90
26336;DHT22;14047;50.936;4.654;2022-09-06T16:33:34;28.70;99.90
26336;DHT22;14047;50.936;4.654;2022-09-06T16:36:00;28.70;99.90
26336;DHT22;14047;50.936;4.654;2022-09-06T16:38:30;29.00;99.90
26336;DHT22;14047;50.936;4.654;2022-09-06T16:41:15;29.40;99.90
26336;DHT22;14047;50.936;4.654;2022-09-06T16:43:41;29.60;99.90
26336;DHT22;14047;50.936;4.654;2022-09-06T16:46:08;29.20;99.90
26336;DHT22;14047;50.936;4.654;2022-09-06T16:48:34;29.40;99.90
26336;DHT22;14047;50.936;4.654;2022-09-06T16:51:19;29.20;99.90
26336;DHT22;14047;50.936;4.654;2022-09-06T16:53:47;29.10;99.90
26336;DHT22;14047;50.936;4.654;2022-09-06T16:56:16;29.80;99.90
26336;DHT22;14047;50.936;4.654;2022-09-06T16:58:43;30.70;99.90
26336;DHT22;14047;50.936;4.654;2022-09-06T17:01:12;31.60;99.90
26336;DHT22;14047;50.936;4.654;2022-09-06T17:03:41;31.90;99.90
26336;DHT22;14047;50.936;4.654;2022-09-06T17:06:07;31.60;99.90
26336;DHT22;14047;50.936;4.654;2022-09-06T17:08:34;31.50;99.90
26336;DHT22;14047;50.936;4.654;2022-09-06T17:11:13;30.90;99.90
26336;DHT22;14047;50.936;4.654;2022-09-06T17:13:39;30.40;99.90
26336;DHT22;14047;50.936;4.654;2022-09-06T17:16:06;29.40;99.90
26336;DHT22;14047;50.936;4.654;2022-09-06T17:18:51;29.00;99.90
26336;DHT22;14047;50.936;4.654;2022-09-06T17:21:19;28.60;99.90
26336;DHT22;14047;50.936;4.654;2022-09-06T17:23:45;28.40;99.90
26336;DHT22;14047;50.936;4.654;2022-09-06T17:26:11;27.80;99.90
26336;DHT22;14047;50.936;4.654;2022-09-06T17:28:38;27.40;99.90
26336;DHT22;14047;50.936;4.654;2022-09-06T17:31:05;27.20;99.90
26336;DHT22;14047;50.936;4.654;2022-09-06T17:33:33;26.80;99.90